Time;durP1;ratioP1;P1;durP2;ratioP2;P2;SDS_P1;SDS_P2;PMS_P1;PMS_P2;Temp;Humidity;BMP_temperature;BMP_pressure;BME280_temperature;BME280_humidity;BME280_pressure;Samples;Min_cycle;Max_cycle;Signal;HPM_P1;HPM_P2
2022/03/30 00:00:56;;;;;;;3.37;1.13;;;11.50;99.90;;;;;;5033402;28;20454;-68
2022/03/30 00:03:22;;;;;;;3.63;1.83;;;11.40;99.90;;;;;;5033512;28;20167;-68
2022/03/30 00:05:47;;;;;;;11.93;2.67;;;11.40;99.90;;;;;;5033422;28;20191;-68
2022/03/30 00:08:13;;;;;;;4.00;1.97;;;11.40;99.90;;;;;;5033259;28;20414;-68
2022/03/30 00:10:39;;;;;;;7.60;2.73;;;11.40;99.90;;;;;;5032689;28;20257;-69
2022/03/30 00:13:04;;;;;;;3.83;3.63;;;11.40;99.90;;;;;;5033050;28;20419;-68
2022/03/30 00:15:30;;;;;;;9.30;2.50;;;11.30;99.90;;;;;;5033220;28;20329;-68
2022/03/30 00:17:56;;;;;;;1.30;1.20;;;11.40;99.90;;;;;;5033129;28;20202;-69
2022/03/30 00:20:22;;;;;;;1.80;1.70;;;11.30;99.90;;;;;;5033106;28;20195;-69
2022/03/30 00:22:47;;;;;;;1.80;1.63;;;11.30;99.90;;;;;;5032982;28;20441;-68
2022/03/30 00:25:14;;;;;;;3.13;2.83;;;11.30;99.90;;;;;;5033033;28;20191;-69
2022/03/30 00:27:46;;;;;;;2.77;1.50;;;11.30;99.90;;;;;;5031723;28;20667;-69
2022/03/30 00:30:16;;;;;;;2.20;2.03;;;11.30;99.90;;;;;;5033261;28;20823;-69
2022/03/30 00:32:41;;;;;;;6.30;1.50;;;11.30;99.90;;;;;;5032944;28;20468;-69
2022/03/30 00:35:08;;;;;;;1.13;1.03;;;11.20;99.90;;;;;;5032885;28;20442;-69
2022/03/30 00:37:34;;;;;;;2.63;2.40;;;11.20;99.90;;;;;;5032786;28;20179;-69
2022/03/30 00:40:00;;;;;;;5.03;1.27;;;11.20;99.90;;;;;;5032750;28;20453;-69
2022/03/30 00:42:26;;;;;;;19.67;3.70;;;11.20;99.90;;;;;;5032680;28;20426;-68
2022/03/30 00:44:53;;;;;;;2.37;1.80;;;11.20;99.90;;;;;;5032818;28;20426;-68
2022/03/30 00:47:21;;;;;;;3.57;3.27;;;11.20;99.90;;;;;;5032551;28;20175;-69
2022/03/30 00:49:48;;;;;;;2.23;2.13;;;11.20;99.90;;;;;;5032563;28;20442;-68
2022/03/30 00:52:16;;;;;;;1.13;1.03;;;11.20;99.90;;;;;;5032594;28;20775;-68
2022/03/30 00:54:44;;;;;;;1.70;1.30;;;11.10;99.90;;;;;;5032450;28;20493;-68
2022/03/30 00:57:11;;;;;;;4.50;4.20;;;11.10;99.90;;;;;;5032424;28;20455;-67
2022/03/30 00:59:38;;;;;;;2.63;1.70;;;11.10;99.90;;;;;;5032280;28;20457;-69
2022/03/30 01:02:04;;;;;;;3.23;1.53;;;11.10;99.90;;;;;;5031259;28;20441;-68
2022/03/30 01:04:31;;;;;;;3.90;1.43;;;11.10;99.90;;;;;;5032391;28;20442;-68
2022/03/30 01:06:57;;;;;;;4.13;3.10;;;11.10;99.90;;;;;;5032448;28;20183;-68
2022/03/30 01:09:24;;;;;;;2.00;1.03;;;11.10;99.90;;;;;;5032085;28;20426;-68
2022/03/30 01:11:51;;;;;;;5.90;2.33;;;11.00;99.90;;;;;;5032201;28;20175;-68
2022/03/30 01:14:18;;;;;;;3.03;1.40;;;11.00;99.90;;;;;;5032286;28;20425;-70
2022/03/30 01:16:43;;;;;;;2.33;2.13;;;11.00;99.90;;;;;;5032197;28;20430;-70
2022/03/30 01:19:10;;;;;;;1.77;1.67;;;11.00;99.90;;;;;;5031865;28;20508;-68
2022/03/30 01:21:37;;;;;;;3.73;2.17;;;11.00;99.90;;;;;;5030965;28;20183;-68
2022/03/30 01:24:04;;;;;;;13.80;2.87;;;11.00;99.90;;;;;;5031045;28;20418;-68
2022/03/30 01:26:30;;;;;;;9.90;2.60;;;11.00;99.90;;;;;;5030305;28;20963;-68
2022/03/30 01:28:56;;;;;;;3.67;1.37;;;11.00;99.90;;;;;;5031778;28;20529;-68
2022/03/30 01:34:07;;;;;;;4.73;2.10;;;11.00;99.90;;;;;;5026242;28;20445;-70
2022/03/30 01:36:33;;;;;;;1.87;1.00;;;10.90;99.90;;;;;;5031993;28;20415;-68
2022/03/30 01:38:58;;;;;;;1.13;0.93;;;10.90;99.90;;;;;;5031462;28;20421;-68
2022/03/30 01:41:24;;;;;;;3.03;1.47;;;10.90;99.90;;;;;;5031903;28;20644;-68
2022/03/30 01:43:49;;;;;;;5.57;4.50;;;10.90;99.90;;;;;;5031796;28;20682;-68
2022/03/30 01:46:15;;;;;;;1.37;1.27;;;10.90;99.90;;;;;;5031678;28;20205;-69
2022/03/30 01:48:41;;;;;;;4.73;1.87;;;10.90;99.90;;;;;;5031467;28;20210;-68
2022/03/30 01:51:06;;;;;;;3.23;1.53;;;10.80;99.90;;;;;;5031884;28;20174;-69
2022/03/30 01:53:32;;;;;;;15.20;3.70;;;10.80;99.90;;;;;;5031418;28;20442;-68
2022/03/30 01:55:57;;;;;;;5.83;4.07;;;10.80;99.90;;;;;;5031799;28;20696;-68
2022/03/30 01:58:23;;;;;;;3.23;1.63;;;10.80;99.90;;;;;;5031529;28;20221;-68
2022/03/30 02:00:49;;;;;;;2.40;2.20;;;10.70;99.90;;;;;;5031587;28;20664;-68
2022/03/30 02:03:14;;;;;;;1.63;1.53;;;10.70;99.90;;;;;;5031600;28;20629;-68
2022/03/30 02:05:40;;;;;;;2.43;2.10;;;10.70;99.90;;;;;;5031627;28;20273;-69
2022/03/30 02:08:06;;;;;;;2.30;2.10;;;10.60;99.90;;;;;;5031520;28;20636;-69
2022/03/30 02:10:32;;;;;;;4.07;1.93;;;10.60;99.90;;;;;;5031592;28;20203;-69
2022/03/30 02:12:58;;;;;;;7.00;2.53;;;10.60;99.90;;;;;;5031693;28;20178;-69
2022/03/30 02:15:24;;;;;;;4.53;1.93;;;10.60;99.90;;;;;;5031611;28;20445;-69
2022/03/30 02:17:51;;;;;;;3.80;3.60;;;10.60;99.90;;;;;;5031202;28;20449;-69
2022/03/30 02:20:16;;;;;;;3.33;1.63;;;10.50;99.90;;;;;;5031482;28;20462;-68
2022/03/30 02:22:42;;;;;;;1.37;1.27;;;10.50;99.90;;;;;;5031284;28;20846;-68
2022/03/30 02:25:09;;;;;;;1.93;1.50;;;10.50;99.90;;;;;;5031462;28;20200;-68
2022/03/30 02:27:35;;;;;;;2.53;1.80;;;10.40;99.90;;;;;;5031044;28;20438;-69
2022/03/30 02:30:01;;;;;;;2.00;1.90;;;10.40;99.90;;;;;;5031490;28;20882;-69
2022/03/30 02:32:27;;;;;;;1.97;1.00;;;10.40;99.90;;;;;;5031379;28;20517;-68
2022/03/30 02:34:52;;;;;;;4.63;1.37;;;10.40;99.90;;;;;;5032609;28;20681;-68
2022/03/30 02:37:18;;;;;;;1.00;0.80;;;10.40;99.90;;;;;;5035176;28;20175;-69
2022/03/30 02:39:44;;;;;;;6.10;2.63;;;10.30;99.90;;;;;;5034800;28;20229;-68
2022/03/30 02:42:10;;;;;;;14.03;2.60;;;10.30;99.90;;;;;;5035166;28;20164;-69
2022/03/30 02:44:36;;;;;;;4.50;2.00;;;10.30;99.90;;;;;;5035001;28;20806;-69
2022/03/30 02:47:03;;;;;;;9.63;2.87;;;10.30;99.90;;;;;;5035172;28;20282;-69
2022/03/30 02:49:29;;;;;;;3.47;2.23;;;10.30;99.90;;;;;;5034523;28;20492;-69
2022/03/30 02:51:55;;;;;;;1.20;0.60;;;10.30;99.90;;;;;;5034866;28;20468;-69
2022/03/30 02:54:20;;;;;;;0.80;0.70;;;10.20;99.90;;;;;;5034696;28;20198;-69
2022/03/30 02:56:46;;;;;;;3.00;2.20;;;10.20;99.90;;;;;;5035187;28;20182;-70
2022/03/30 02:59:12;;;;;;;6.60;1.70;;;10.20;99.90;;;;;;5033533;28;20195;-69
2022/03/30 03:01:39;;;;;;;3.03;2.73;;;10.20;99.90;;;;;;5034311;28;21124;-68
2022/03/30 03:04:04;;;;;;;1.00;0.90;;;10.20;99.90;;;;;;5034747;28;20505;-69
2022/03/30 03:06:31;;;;;;;3.87;2.13;;;10.20;99.90;;;;;;5034496;28;20265;-68
2022/03/30 03:08:57;;;;;;;5.33;2.33;;;10.20;99.90;;;;;;5034613;28;20168;-70
2022/03/30 03:11:24;;;;;;;3.57;3.23;;;10.20;99.90;;;;;;5034684;28;20942;-70
2022/03/30 03:13:50;;;;;;;5.80;2.70;;;10.20;99.90;;;;;;5034530;28;20775;-69
2022/03/30 03:16:15;;;;;;;0.80;0.70;;;10.20;99.90;;;;;;5034530;28;20445;-69
2022/03/30 03:18:41;;;;;;;5.20;1.73;;;10.20;99.90;;;;;;5034008;28;20428;-69
2022/03/30 03:21:06;;;;;;;6.57;2.40;;;10.20;99.90;;;;;;5032857;28;20217;-69
2022/03/30 03:23:32;;;;;;;2.13;1.33;;;10.20;99.90;;;;;;5034414;28;20187;-69
2022/03/30 03:25:58;;;;;;;2.30;1.90;;;10.20;99.90;;;;;;5034196;28;20199;-69
2022/03/30 03:28:24;;;;;;;5.27;2.10;;;10.10;99.90;;;;;;5034044;28;20591;-68
2022/03/30 03:30:49;;;;;;;2.57;2.20;;;10.10;99.90;;;;;;5034241;28;20418;-68
2022/03/30 03:33:15;;;;;;;3.43;2.23;;;10.10;99.90;;;;;;5034167;28;20233;-68
2022/03/30 03:35:41;;;;;;;2.70;1.83;;;10.10;99.90;;;;;;5033911;28;20567;-69
2022/03/30 03:38:08;;;;;;;1.17;0.97;;;10.10;99.90;;;;;;5033853;28;20257;-69
2022/03/30 03:40:35;;;;;;;3.47;1.40;;;10.10;99.90;;;;;;5033859;28;20465;-69
2022/03/30 03:43:02;;;;;;;2.30;2.20;;;10.00;99.90;;;;;;5034015;28;20505;-69
2022/03/30 03:45:28;;;;;;;5.00;4.60;;;10.00;99.90;;;;;;5033707;28;20532;-68
2022/03/30 03:47:54;;;;;;;2.43;2.33;;;10.00;99.90;;;;;;5033575;28;20556;-68
2022/03/30 03:50:20;;;;;;;2.17;1.97;;;9.90;99.90;;;;;;5033857;28;20437;-70
2022/03/30 03:52:45;;;;;;;1.33;1.17;;;9.90;99.90;;;;;;5033726;28;20422;-69
2022/03/30 03:55:11;;;;;;;2.30;2.20;;;9.90;99.90;;;;;;5032624;28;20462;-68
2022/03/30 03:57:38;;;;;;;4.70;2.83;;;9.90;99.90;;;;;;5033443;28;20183;-69
2022/03/30 04:00:05;;;;;;;2.53;2.33;;;9.90;99.90;;;;;;5033684;28;20458;-69
2022/03/30 04:02:31;;;;;;;3.93;2.63;;;9.90;99.90;;;;;;5033608;28;20472;-69
2022/03/30 04:04:56;;;;;;;1.50;0.87;;;9.80;99.90;;;;;;5033438;28;20442;-69
2022/03/30 04:07:22;;;;;;;2.70;2.50;;;9.80;99.90;;;;;;5033654;28;20641;-68
2022/03/30 04:09:47;;;;;;;2.87;1.90;;;9.80;99.90;;;;;;5033082;28;20188;-68
2022/03/30 04:12:13;;;;;;;2.27;2.17;;;9.80;99.90;;;;;;5033404;28;20179;-69
2022/03/30 04:14:38;;;;;;;8.67;2.07;;;9.70;99.90;;;;;;5033233;28;20196;-68
2022/03/30 04:17:04;;;;;;;1.97;1.80;;;9.70;99.90;;;;;;5033400;28;20171;-68
2022/03/30 04:19:30;;;;;;;2.30;2.13;;;9.70;99.90;;;;;;5032789;28;20227;-69
2022/03/30 04:21:55;;;;;;;2.43;1.30;;;9.60;99.90;;;;;;5033213;28;20178;-68
2022/03/30 04:24:21;;;;;;;5.77;2.37;;;9.60;99.90;;;;;;5033157;28;20167;-68
2022/03/30 04:26:46;;;;;;;1.93;1.27;;;9.60;99.90;;;;;;5033002;28;20556;-69
2022/03/30 04:29:12;;;;;;;1.00;0.83;;;9.50;99.90;;;;;;5032865;28;20314;-69
2022/03/30 04:31:37;;;;;;;1.87;1.63;;;9.50;99.90;;;;;;5033131;28;20183;-69
2022/03/30 04:34:03;;;;;;;2.03;1.33;;;9.50;99.90;;;;;;5033071;28;20186;-70
2022/03/30 04:36:28;;;;;;;3.33;1.10;;;9.50;99.90;;;;;;5032791;28;20191;-69
2022/03/30 04:38:54;;;;;;;1.70;1.60;;;9.50;99.90;;;;;;5032605;28;20171;-68
2022/03/30 04:41:20;;;;;;;1.57;1.10;;;9.40;99.90;;;;;;5032953;28;20587;-68
2022/03/30 04:43:46;;;;;;;3.83;2.47;;;9.40;99.90;;;;;;5033005;28;20179;-68
2022/03/30 04:46:13;;;;;;;1.17;1.03;;;9.40;99.90;;;;;;5031443;28;20237;-68
2022/03/30 04:48:39;;;;;;;2.23;1.53;;;9.40;99.90;;;;;;5032138;28;20764;-69
2022/03/30 04:51:05;;;;;;;1.90;1.53;;;9.40;99.90;;;;;;5032724;28;20574;-68
2022/03/30 04:53:30;;;;;;;1.17;1.07;;;9.40;99.90;;;;;;5032298;28;20943;-68
2022/03/30 04:55:56;;;;;;;1.10;1.00;;;9.40;99.90;;;;;;5031381;28;20440;-70
2022/03/30 04:58:22;;;;;;;1.67;1.07;;;9.30;99.90;;;;;;5031985;28;20186;-70
2022/03/30 05:00:48;;;;;;;1.10;1.00;;;9.30;99.90;;;;;;5032487;28;20195;-70
2022/03/30 05:03:14;;;;;;;2.23;1.17;;;9.30;99.90;;;;;;5032431;28;20168;-69
2022/03/30 05:05:39;;;;;;;1.03;0.93;;;9.30;99.90;;;;;;5032312;28;20445;-69
2022/03/30 05:08:05;;;;;;;3.90;3.03;;;9.30;99.90;;;;;;5032124;28;20183;-69
2022/03/30 05:10:31;;;;;;;1.83;0.77;;;9.30;99.90;;;;;;5032226;28;20175;-69
2022/03/30 05:12:58;;;;;;;2.47;1.23;;;9.30;99.90;;;;;;5032383;28;20430;-69
2022/03/30 05:15:24;;;;;;;1.30;1.00;;;9.20;99.90;;;;;;5032198;28;20214;-69
2022/03/30 05:17:49;;;;;;;1.37;1.27;;;9.20;99.90;;;;;;5031890;28;20822;-69
2022/03/30 05:20:16;;;;;;;1.70;1.60;;;9.20;99.90;;;;;;5032062;28;20241;-69
2022/03/30 05:22:44;;;;;;;3.30;2.57;;;9.20;99.90;;;;;;5032053;28;20679;-69
2022/03/30 05:25:10;;;;;;;1.43;1.33;;;9.20;99.90;;;;;;5032016;28;20449;-69
2022/03/30 05:27:38;;;;;;;3.57;1.30;;;9.20;99.90;;;;;;5032018;28;20498;-69
2022/03/30 05:30:04;;;;;;;6.93;1.63;;;9.20;99.90;;;;;;5031935;28;20430;-69
2022/03/30 05:32:30;;;;;;;2.00;1.90;;;9.20;99.90;;;;;;5031754;28;20421;-70
2022/03/30 05:34:56;;;;;;;1.73;1.63;;;9.20;99.90;;;;;;5031804;28;20446;-69
2022/03/30 05:37:24;;;;;;;3.70;2.37;;;9.10;99.90;;;;;;5031994;28;20676;-69
2022/03/30 05:39:50;;;;;;;3.60;1.90;;;9.10;99.90;;;;;;5031503;28;20192;-69
2022/03/30 05:42:16;;;;;;;9.70;1.60;;;9.10;99.90;;;;;;5031881;28;20456;-69
2022/03/30 05:44:41;;;;;;;2.00;1.00;;;9.10;99.90;;;;;;5031755;28;20529;-69
2022/03/30 05:47:08;;;;;;;1.77;1.20;;;9.10;99.90;;;;;;5031856;28;20497;-69
2022/03/30 05:49:35;;;;;;;5.77;3.97;;;9.10;99.90;;;;;;5031416;28;20176;-69
2022/03/30 05:52:01;;;;;;;1.20;0.70;;;9.10;99.90;;;;;;5031811;28;20421;-69
2022/03/30 05:54:27;;;;;;;1.63;1.13;;;9.10;99.90;;;;;;5031522;28;20953;-69
2022/03/30 05:57:02;;;;;;;1.60;1.50;;;9.10;99.90;;;;;;5031769;28;20426;-69
2022/03/30 05:59:37;;;;;;;1.43;1.27;;;9.10;99.90;;;;;;5031475;28;20191;-69
2022/03/30 06:02:04;;;;;;;1.40;1.30;;;9.00;99.90;;;;;;5016699;28;20509;-69
2022/03/30 06:04:31;;;;;;;1.33;1.23;;;9.00;99.90;;;;;;5031731;28;20490;-69
2022/03/30 06:06:57;;;;;;;2.07;1.97;;;9.00;99.90;;;;;;5031810;28;20923;-69
2022/03/30 06:09:23;;;;;;;1.10;1.00;;;9.00;99.90;;;;;;5033956;28;20429;-69
2022/03/30 06:11:49;;;;;;;1.43;1.33;;;9.00;99.90;;;;;;5035795;28;20418;-69
2022/03/30 06:14:14;;;;;;;1.40;1.20;;;9.00;99.90;;;;;;5035701;28;20183;-69
2022/03/30 06:16:41;;;;;;;2.60;1.77;;;9.10;99.90;;;;;;5035546;28;20640;-69
2022/03/30 06:19:12;;;;;;;2.07;1.43;;;9.10;99.90;;;;;;5034956;28;20168;-68
2022/03/30 06:21:37;;;;;;;2.00;1.67;;;9.20;99.90;;;;;;5035388;28;20768;-69
2022/03/30 06:24:04;;;;;;;2.60;1.23;;;9.20;99.90;;;;;;5035435;28;20424;-69
2022/03/30 06:26:30;;;;;;;7.63;4.20;;;9.40;99.90;;;;;;5034904;28;20207;-69
2022/03/30 06:28:56;;;;;;;1.73;1.63;;;9.60;99.90;;;;;;5035168;28;20428;-69
2022/03/30 06:31:22;;;;;;;1.53;1.43;;;9.80;99.90;;;;;;5035279;28;20557;-69
2022/03/30 06:33:49;;;;;;;3.33;1.23;;;10.10;99.90;;;;;;5035199;28;20422;-69
2022/03/30 06:36:15;;;;;;;3.87;2.50;;;10.50;99.90;;;;;;5035115;28;20469;-69
2022/03/30 06:38:44;;;;;;;4.60;3.13;;;11.00;99.90;;;;;;5034503;28;20415;-69
2022/03/30 06:41:12;;;;;;;1.70;1.47;;;11.50;99.90;;;;;;5035057;28;20457;-69
2022/03/30 06:43:42;;;;;;;2.13;2.03;;;11.90;99.90;;;;;;5034880;28;20473;-69
2022/03/30 06:46:11;;;;;;;7.27;3.67;;;12.20;99.90;;;;;;5034707;28;20780;-69
2022/03/30 06:48:36;;;;;;;1.40;1.30;;;12.50;99.90;;;;;;5034586;28;20425;-69
2022/03/30 06:51:02;;;;;;;3.53;2.43;;;12.60;99.90;;;;;;5034806;28;20422;-69
2022/03/30 06:53:28;;;;;;;2.43;2.23;;;12.80;99.90;;;;;;5034659;28;20176;-69
2022/03/30 06:55:53;;;;;;;3.30;1.90;;;13.10;99.90;;;;;;5034543;28;20206;-69
2022/03/30 06:58:19;;;;;;;8.03;6.17;;;13.60;99.90;;;;;;5034422;28;20190;-69
2022/03/30 07:00:44;;;;;;;6.43;3.00;;;14.00;99.90;;;;;;5034546;28;20207;-69
2022/03/30 07:03:10;;;;;;;3.93;2.40;;;14.40;99.90;;;;;;5034753;28;20171;-69
2022/03/30 07:05:38;;;;;;;5.40;1.87;;;14.60;99.90;;;;;;5034656;28;20219;-69
2022/03/30 07:10:48;;;;;;;2.10;2.00;;;14.70;99.90;;;;;;5033969;28;20496;-70
2022/03/30 07:13:13;;;;;;;6.00;2.40;;;14.80;99.90;;;;;;5034485;28;20445;-69
2022/03/30 07:15:40;;;;;;;5.70;3.37;;;14.90;99.90;;;;;;5034292;28;20200;-69
2022/03/30 07:18:08;;;;;;;5.43;3.17;;;14.90;99.90;;;;;;5034314;28;20670;-69
2022/03/30 07:20:34;;;;;;;4.30;2.13;;;14.90;99.90;;;;;;5033611;28;20492;-70
2022/03/30 07:22:59;;;;;;;8.87;2.80;;;14.90;99.90;;;;;;5033558;28;20433;-69
2022/03/30 07:25:26;;;;;;;5.67;4.37;;;15.00;99.90;;;;;;5034542;28;20433;-70
2022/03/30 07:27:55;;;;;;;2.50;2.30;;;15.10;99.90;;;;;;5034420;28;20179;-69
2022/03/30 07:30:23;;;;;;;4.93;4.43;;;15.20;99.90;;;;;;5034348;28;20441;-70
2022/03/30 07:32:51;;;;;;;29.20;3.90;;;15.40;99.90;;;;;;5034445;28;20418;-70
2022/03/30 07:35:22;;;;;;;8.13;3.30;;;15.80;99.90;;;;;;5034171;28;20834;-69
2022/03/30 07:37:48;;;;;;;4.20;2.93;;;16.40;99.90;;;;;;5034213;28;20915;-71
2022/03/30 07:40:16;;;;;;;3.60;2.20;;;17.00;99.90;;;;;;5033623;28;20458;-71
2022/03/30 07:42:43;;;;;;;6.60;4.13;;;17.50;99.90;;;;;;5034185;28;20415;-70
2022/03/30 07:45:10;;;;;;;4.53;3.67;;;17.70;97.40;;;;;;5033871;28;20466;-71
2022/03/30 07:47:35;;;;;;;7.80;3.97;;;17.80;95.10;;;;;;5033878;28;20829;-69
2022/03/30 07:50:02;;;;;;;5.50;4.27;;;17.70;93.20;;;;;;5033462;28;20418;-69
2022/03/30 07:52:27;;;;;;;8.73;1.80;;;17.70;92.10;;;;;;5033898;28;20548;-70
2022/03/30 07:54:54;;;;;;;6.13;2.63;;;17.70;91.70;;;;;;5033439;28;20465;-70
2022/03/30 07:57:26;;;;;;;4.27;3.30;;;17.60;91.10;;;;;;5033661;28;20255;-71
2022/03/30 07:59:53;;;;;;;4.17;2.60;;;17.60;90.50;;;;;;5033224;28;20958;-70
2022/03/30 08:02:19;;;;;;;2.00;1.83;;;17.60;89.60;;;;;;5033409;28;20506;-71
2022/03/30 08:04:44;;;;;;;5.03;2.67;;;17.60;90.10;;;;;;5032872;28;21034;-70
2022/03/30 08:07:10;;;;;;;5.73;4.33;;;17.70;89.00;;;;;;5032966;28;20174;-70
2022/03/30 08:09:36;;;;;;;4.03;3.70;;;17.90;88.60;;;;;;5033365;28;20184;-70
2022/03/30 08:12:02;;;;;;;5.20;3.07;;;18.30;89.20;;;;;;5033312;28;20182;-70
2022/03/30 08:14:28;;;;;;;5.97;3.90;;;18.80;86.80;;;;;;5033282;28;20175;-70
2022/03/30 08:16:53;;;;;;;5.67;3.40;;;19.70;85.00;;;;;;5033091;28;20484;-71
2022/03/30 08:19:19;;;;;;;8.73;5.70;;;20.60;80.10;;;;;;5032880;28;20230;-71
2022/03/30 08:24:28;;;;;;;3.73;3.30;;;22.00;69.90;;;;;;5032931;28;20597;-71
2022/03/30 08:26:54;;;;;;;8.30;4.37;;;22.80;65.90;;;;;;5032693;28;20501;-71
2022/03/30 08:29:19;;;;;;;6.97;4.27;;;23.50;62.70;;;;;;5032507;28;20258;-71
2022/03/30 08:31:47;;;;;;;7.10;2.70;;;24.30;58.90;;;;;;5032693;28;20229;-70
2022/03/30 08:34:14;;;;;;;6.17;4.20;;;25.00;57.10;;;;;;5032556;28;20176;-71
2022/03/30 08:36:40;;;;;;;5.47;3.27;;;25.90;53.80;;;;;;5032559;28;20449;-70
2022/03/30 08:39:11;;;;;;;8.00;5.93;;;26.80;51.40;;;;;;5032249;28;20843;-68
2022/03/30 08:41:43;;;;;;;6.97;4.30;;;27.70;48.50;;;;;;5032553;28;20961;-68
2022/03/30 08:44:09;;;;;;;7.03;4.63;;;28.60;46.80;;;;;;5032516;28;20422;-69
2022/03/30 08:46:37;;;;;;;7.10;3.67;;;29.20;44.50;;;;;;5032194;28;20991;-70
2022/03/30 08:49:03;;;;;;;19.93;17.83;;;29.60;42.00;;;;;;5032012;28;20422;-71
2022/03/30 08:51:31;;;;;;;9.60;4.90;;;29.80;41.30;;;;;;5032175;28;20422;-70
2022/03/30 08:53:56;;;;;;;4.83;3.27;;;29.80;39.90;;;;;;5032364;28;20176;-69
2022/03/30 08:56:24;;;;;;;6.37;3.53;;;29.70;39.80;;;;;;5032170;28;20438;-69
2022/03/30 08:58:54;;;;;;;5.83;3.17;;;29.80;39.20;;;;;;5031916;28;20175;-70
2022/03/30 09:01:22;;;;;;;7.93;4.17;;;29.80;38.80;;;;;;5032136;28;20462;-69
2022/03/30 09:03:59;;;;;;;4.37;3.97;;;30.10;38.00;;;;;;5030303;28;20453;-69
2022/03/30 09:06:39;;;;;;;4.30;3.53;;;30.70;38.20;;;;;;5032053;28;20930;-69
2022/03/30 09:09:06;;;;;;;4.53;3.60;;;31.30;36.70;;;;;;5031864;28;20545;-70
2022/03/30 09:11:40;;;;;;;3.83;3.40;;;31.90;35.80;;;;;;5032027;28;20778;-70
2022/03/30 09:14:07;;;;;;;3.77;2.60;;;32.20;33.80;;;;;;5030758;28;20445;-70
2022/03/30 09:16:58;;;;;;;5.90;4.33;;;32.60;33.10;;;;;;5031943;28;20812;-70
2022/03/30 09:19:24;;;;;;;4.80;3.10;;;32.70;31.70;;;;;;5014346;28;20497;-70
2022/03/30 09:21:56;;;;;;;2.37;1.97;;;32.80;31.50;;;;;;5032360;28;20430;-70
2022/03/30 09:24:25;;;;;;;3.87;3.10;;;32.90;31.70;;;;;;5031745;28;20420;-70
2022/03/30 09:26:52;;;;;;;3.70;2.80;;;33.10;32.20;;;;;;5031126;28;20406;-70
2022/03/30 09:29:20;;;;;;;4.13;2.73;;;33.10;31.60;;;;;;5031381;28;20407;-70
2022/03/30 09:31:48;;;;;;;2.93;2.43;;;33.30;31.60;;;;;;5031760;28;20450;-69
2022/03/30 09:34:14;;;;;;;4.30;2.47;;;33.60;31.20;;;;;;5031604;28;20924;-69
2022/03/30 09:36:42;;;;;;;3.37;2.37;;;33.90;29.90;;;;;;5031576;28;20421;-70
2022/03/30 09:39:29;;;;;;;4.20;3.90;;;34.40;30.00;;;;;;5031350;28;20258;-70
2022/03/30 09:41:58;;;;;;;6.00;3.03;;;34.80;29.60;;;;;;5031174;28;20431;-69
2022/03/30 09:44:24;;;;;;;4.20;2.77;;;35.30;29.10;;;;;;5031186;28;20429;-70
2022/03/30 09:46:58;;;;;;;3.80;2.67;;;35.40;28.30;;;;;;5031483;28;20793;-70
2022/03/30 09:49:47;;;;;;;3.60;2.60;;;35.20;28.60;;;;;;5031210;28;20417;-70
2022/03/30 09:52:17;;;;;;;4.90;3.70;;;35.70;29.10;;;;;;5031711;28;20422;-70
2022/03/30 09:55:00;;;;;;;5.23;3.93;;;36.20;29.00;;;;;;5031123;28;20449;-69
2022/03/30 09:57:32;;;;;;;4.23;3.00;;;36.80;28.80;;;;;;5031416;28;20418;-71
2022/03/30 10:00:03;;;;;;;3.60;2.90;;;37.40;28.70;;;;;;5029916;28;20450;-70
2022/03/30 10:02:50;;;;;;;2.70;2.40;;;38.10;28.20;;;;;;5031284;28;20410;-70
2022/03/30 10:05:19;;;;;;;3.97;3.63;;;38.30;27.70;;;;;;5031329;28;20596;-70
2022/03/30 10:07:47;;;;;;;8.60;4.43;;;38.00;27.30;;;;;;5031162;28;20421;-70
2022/03/30 10:10:22;;;;;;;4.17;3.00;;;37.60;26.90;;;;;;5030901;28;20445;-71
2022/03/30 10:12:47;;;;;;;3.80;2.83;;;37.20;27.50;;;;;;5030225;28;20421;-71
2022/03/30 10:15:13;;;;;;;6.03;2.80;;;36.90;27.20;;;;;;5031166;28;20442;-70
2022/03/30 10:17:39;;;;;;;5.17;3.43;;;36.80;27.10;;;;;;5031204;28;20175;-70
2022/03/30 10:20:07;;;;;;;5.77;3.23;;;37.10;27.40;;;;;;5030704;28;20195;-70
2022/03/30 10:22:41;;;;;;;3.80;3.07;;;37.70;27.30;;;;;;5031039;28;20430;-70
2022/03/30 10:25:26;;;;;;;4.67;4.20;;;38.50;26.70;;;;;;5031007;28;20429;-70
2022/03/30 10:28:13;;;;;;;3.17;2.83;;;38.70;26.70;;;;;;5030934;28;20525;-70
2022/03/30 10:30:43;;;;;;;4.67;3.97;;;39.20;26.30;;;;;;5031175;28;20924;-70
2022/03/30 10:33:09;;;;;;;5.90;2.90;;;39.40;26.00;;;;;;5031290;28;20511;-70
2022/03/30 10:35:44;;;;;;;3.30;3.00;;;39.80;25.90;;;;;;5030744;28;20442;-70
2022/03/30 10:38:10;;;;;;;3.33;3.00;;;40.10;25.90;;;;;;5031114;28;20414;-70
2022/03/30 10:40:37;;;;;;;4.87;3.10;;;40.50;25.60;;;;;;5030744;28;20449;-70
2022/03/30 10:43:12;;;;;;;3.20;2.63;;;41.00;25.60;;;;;;5030963;28;20501;-73
2022/03/30 10:45:51;;;;;;;4.50;2.57;;;41.70;25.20;;;;;;5030766;28;20437;-70
2022/03/30 10:48:37;;;;;;;2.80;2.60;;;42.50;25.00;;;;;;5030959;28;20414;-70
2022/03/30 10:51:08;;;;;;;2.63;2.40;;;43.20;24.30;;;;;;5030965;28;20444;-71
2022/03/30 10:53:34;;;;;;;3.00;2.73;;;43.60;24.20;;;;;;5030430;28;20465;-70
2022/03/30 10:56:14;;;;;;;2.77;2.57;;;44.00;24.30;;;;;;5030307;28;20441;-70
2022/03/30 10:58:49;;;;;;;3.80;3.40;;;44.50;24.00;;;;;;5028036;28;20159;-70
2022/03/30 11:01:18;;;;;;;4.10;3.27;;;44.80;23.90;;;;;;5034509;28;20417;-71
2022/03/30 11:04:18;;;;;;;3.93;2.90;;;45.20;23.60;;;;;;5034408;28;20666;-71
2022/03/30 11:06:46;;;;;;;4.23;3.83;;;45.80;23.60;;;;;;5033075;28;20418;-71
2022/03/30 11:09:23;;;;;;;3.60;3.30;;;46.30;23.10;;;;;;5033805;28;20392;-72
2022/03/30 11:12:09;;;;;;;4.57;3.27;;;46.80;22.90;;;;;;5034227;28;20479;-72
2022/03/30 11:14:39;;;;;;;3.67;3.37;;;47.30;22.80;;;;;;5033749;28;20401;-71
2022/03/30 11:17:06;;;;;;;5.67;3.90;;;47.80;22.70;;;;;;5031264;28;20422;-72
2022/03/30 11:19:46;;;;;;;3.83;3.50;;;48.10;22.40;;;;;;5032555;28;20785;-71
2022/03/30 11:22:16;;;;;;;5.23;4.73;;;48.50;22.10;;;;;;5028209;28;20971;-71
2022/03/30 11:24:44;;;;;;;3.53;3.23;;;48.80;22.20;;;;;;5033863;28;20450;-72
2022/03/30 11:27:10;;;;;;;4.70;4.30;;;49.00;21.60;;;;;;5033942;28;20842;-71
2022/03/30 11:29:47;;;;;;;4.17;3.77;;;49.20;21.80;;;;;;5033609;28;20538;-71
2022/03/30 11:32:50;;;;;;;3.77;3.13;;;49.30;21.80;;;;;;5034057;28;20182;-71
2022/03/30 11:35:18;;;;;;;4.73;4.07;;;49.30;21.60;;;;;;5028963;28;20460;-72
2022/03/30 11:37:52;;;;;;;9.30;3.43;;;49.40;21.70;;;;;;5033903;28;20920;-71
2022/03/30 11:40:21;;;;;;;3.40;2.83;;;49.40;21.40;;;;;;5033665;28;20538;-72
2022/03/30 11:42:52;;;;;;;7.40;3.27;;;49.40;21.40;;;;;;5033816;28;20488;-67
2022/03/30 11:45:21;;;;;;;3.83;3.50;;;49.60;21.20;;;;;;5033700;28;20799;-69
2022/03/30 11:47:49;;;;;;;3.07;2.80;;;49.70;21.10;;;;;;5032548;28;20404;-69
2022/03/30 11:50:17;;;;;;;3.50;3.30;;;49.70;21.20;;;;;;5033356;28;20479;-70
2022/03/30 11:52:52;;;;;;;5.73;4.30;;;49.80;21.20;;;;;;5033621;28;20448;-69
2022/03/30 11:55:17;;;;;;;4.47;3.37;;;49.90;20.90;;;;;;5033476;28;20997;-69
2022/03/30 11:57:43;;;;;;;6.73;4.30;;;50.00;21.20;;;;;;5033487;28;20560;-70
2022/03/30 12:00:11;;;;;;;3.40;2.57;;;50.00;20.80;;;;;;5033101;28;20207;-70
2022/03/30 12:02:40;;;;;;;4.37;3.73;;;50.20;21.20;;;;;;5033368;28;20180;-70
2022/03/30 12:05:07;;;;;;;6.33;5.83;;;50.00;20.90;;;;;;5033269;28;20475;-70
2022/03/30 12:07:36;;;;;;;2.87;2.60;;;49.80;20.80;;;;;;5032849;28;20389;-70
2022/03/30 12:10:10;;;;;;;2.87;2.67;;;49.70;20.90;;;;;;5031649;28;20425;-70
2022/03/30 12:12:37;;;;;;;3.60;2.93;;;49.90;21.10;;;;;;5033269;28;20403;-72
2022/03/30 12:15:08;;;;;;;4.40;3.80;;;50.10;20.90;;;;;;5032874;28;20441;-71
2022/03/30 12:17:34;;;;;;;2.87;2.63;;;50.40;20.90;;;;;;5033157;28;20397;-72
2022/03/30 12:20:01;;;;;;;3.50;3.20;;;50.60;20.70;;;;;;5032957;28;20470;-71
2022/03/30 12:22:28;;;;;;;3.83;3.53;;;50.80;20.70;;;;;;5033060;28;20450;-71
2022/03/30 12:24:54;;;;;;;3.63;3.33;;;50.90;20.90;;;;;;5031372;28;20521;-72
2022/03/30 12:27:22;;;;;;;5.40;4.67;;;50.80;20.70;;;;;;5033024;28;20475;-70
2022/03/30 12:29:48;;;;;;;4.10;3.67;;;50.10;20.50;;;;;;5032556;28;20444;-71
2022/03/30 12:32:15;;;;;;;4.77;4.03;;;48.90;20.60;;;;;;5031680;28;20418;-70
2022/03/30 12:34:43;;;;;;;5.60;4.50;;;48.50;20.90;;;;;;5031424;28;20192;-70
2022/03/30 12:37:11;;;;;;;3.17;2.87;;;48.70;21.10;;;;;;5032872;28;20839;-70
2022/03/30 12:39:44;;;;;;;4.53;3.30;;;48.90;20.70;;;;;;5032215;28;20426;-70
2022/03/30 12:42:27;;;;;;;4.63;4.23;;;49.20;20.80;;;;;;5032513;28;21006;-71
2022/03/30 12:44:56;;;;;;;2.70;2.50;;;49.60;20.70;;;;;;5032370;28;20476;-71
2022/03/30 12:47:34;;;;;;;4.33;3.93;;;50.10;20.60;;;;;;5032721;28;20768;-71
2022/03/30 12:50:12;;;;;;;3.30;3.10;;;50.60;20.60;;;;;;5032056;28;20439;-71
2022/03/30 12:52:45;;;;;;;4.07;3.67;;;50.80;20.40;;;;;;5032320;28;20882;-71
2022/03/30 12:55:24;;;;;;;3.30;3.00;;;51.00;20.80;;;;;;5032289;28;20918;-70
2022/03/30 12:58:12;;;;;;;3.60;3.30;;;51.20;20.40;;;;;;5031142;28;20451;-69
2022/03/30 13:00:40;;;;;;;3.50;2.97;;;51.30;19.90;;;;;;5031902;28;20495;-70